sensor_id;sensor_type;location;lat;lon;timestamp;temperature;humidity
292;DHT22;23311;48.776;9.162;2024-02-21T00:00:57;6.70;95.50
292;DHT22;23311;48.776;9.162;2024-02-21T00:03:25;6.80;95.50
292;DHT22;23311;48.776;9.162;2024-02-21T00:05:53;6.80;95.50
292;DHT22;23311;48.776;9.162;2024-02-21T00:08:22;6.80;95.50
292;DHT22;23311;48.776;9.162;2024-02-21T00:10:50;6.80;95.50
292;DHT22;23311;48.776;9.162;2024-02-21T00:13:19;6.90;95.50
292;DHT22;23311;48.776;9.162;2024-02-21T00:15:48;7.10;95.50
292;DHT22;23311;48.776;9.162;2024-02-21T00:18:16;7.10;95.50
292;DHT22;23311;48.776;9.162;2024-02-21T00:20:45;7.10;95.50
292;DHT22;23311;48.776;9.162;2024-02-21T00:23:13;7.20;95.50
292;DHT22;23311;48.776;9.162;2024-02-21T00:25:41;7.20;95.50
292;DHT22;23311;48.776;9.162;2024-02-21T00:28:10;7.20;95.50
292;DHT22;23311;48.776;9.162;2024-02-21T00:30:40;7.10;95.50
292;DHT22;23311;48.776;9.162;2024-02-21T00:33:08;7.10;95.50
292;DHT22;23311;48.776;9.162;2024-02-21T00:35:36;7.10;95.50
292;DHT22;23311;48.776;9.162;2024-02-21T00:38:05;7.30;95.50
292;DHT22;23311;48.776;9.162;2024-02-21T00:40:33;7.30;95.50
292;DHT22;23311;48.776;9.162;2024-02-21T00:43:01;7.40;95.50
292;DHT22;23311;48.776;9.162;2024-02-21T00:45:30;7.50;95.50
292;DHT22;23311;48.776;9.162;2024-02-21T00:47:59;7.50;95.50
292;DHT22;23311;48.776;9.162;2024-02-21T00:50:28;7.40;95.50
292;DHT22;23311;48.776;9.162;2024-02-21T00:52:56;7.40;95.50
292;DHT22;23311;48.776;9.162;2024-02-21T00:55:24;7.40;95.50
292;DHT22;23311;48.776;9.162;2024-02-21T00:57:52;7.40;95.50
292;DHT22;23311;48.776;9.162;2024-02-21T01:00:21;7.40;95.50
292;DHT22;23311;48.776;9.162;2024-02-21T01:02:49;7.30;95.50
292;DHT22;23311;48.776;9.162;2024-02-21T01:05:21;7.30;95.50
292;DHT22;23311;48.776;9.162;2024-02-21T01:07:50;7.30;95.50
292;DHT22;23311;48.776;9.162;2024-02-21T01:10:18;7.20;95.50
292;DHT22;23311;48.776;9.162;2024-02-21T01:12:46;7.20;95.50
292;DHT22;23311;48.776;9.162;2024-02-21T01:15:15;7.30;95.50
292;DHT22;23311;48.776;9.162;2024-02-21T01:17:43;7.20;95.50
292;DHT22;23311;48.776;9.162;2024-02-21T01:20:12;7.20;95.50
292;DHT22;23311;48.776;9.162;2024-02-21T01:22:42;7.20;95.50
292;DHT22;23311;48.776;9.162;2024-02-21T01:25:10;7.20;95.50
292;DHT22;23311;48.776;9.162;2024-02-21T01:27:38;7.20;95.50
292;DHT22;23311;48.776;9.162;2024-02-21T01:30:07;7.20;95.50
292;DHT22;23311;48.776;9.162;2024-02-21T01:32:37;7.20;95.50
292;DHT22;23311;48.776;9.162;2024-02-21T01:35:06;7.20;95.50
292;DHT22;23311;48.776;9.162;2024-02-21T01:37:34;7.20;95.50
292;DHT22;23311;48.776;9.162;2024-02-21T01:40:05;7.20;95.50
292;DHT22;23311;48.776;9.162;2024-02-21T01:42:35;7.20;95.50
292;DHT22;23311;48.776;9.162;2024-02-21T01:45:06;7.10;95.50
292;DHT22;23311;48.776;9.162;2024-02-21T01:47:35;7.10;95.50
292;DHT22;23311;48.776;9.162;2024-02-21T01:50:04;7.10;95.50
292;DHT22;23311;48.776;9.162;2024-02-21T01:52:34;7.10;95.50
292;DHT22;23311;48.776;9.162;2024-02-21T01:55:05;7.10;95.50
292;DHT22;23311;48.776;9.162;2024-02-21T01:57:34;7.10;95.50
292;DHT22;23311;48.776;9.162;2024-02-21T02:00:03;7.10;95.50
292;DHT22;23311;48.776;9.162;2024-02-21T02:02:32;7.10;95.50
292;DHT22;23311;48.776;9.162;2024-02-21T02:05:01;7.10;95.50
292;DHT22;23311;48.776;9.162;2024-02-21T02:07:29;7.10;95.50
292;DHT22;23311;48.776;9.162;2024-02-21T02:09:58;7.10;95.50
292;DHT22;23311;48.776;9.162;2024-02-21T02:12:28;7.20;95.50
292;DHT22;23311;48.776;9.162;2024-02-21T02:14:59;7.20;95.50
292;DHT22;23311;48.776;9.162;2024-02-21T02:17:28;7.20;95.50
292;DHT22;23311;48.776;9.162;2024-02-21T02:19:56;7.20;95.50
292;DHT22;23311;48.776;9.162;2024-02-21T02:22:28;7.20;95.50
292;DHT22;23311;48.776;9.162;2024-02-21T02:24:58;7.20;95.50
292;DHT22;23311;48.776;9.162;2024-02-21T02:27:26;7.20;95.50
292;DHT22;23311;48.776;9.162;2024-02-21T02:29:55;7.20;95.50
292;DHT22;23311;48.776;9.162;2024-02-21T02:32:24;7.20;95.50
292;DHT22;23311;48.776;9.162;2024-02-21T02:34:52;7.20;95.50
292;DHT22;23311;48.776;9.162;2024-02-21T02:37:20;7.20;95.50
292;DHT22;23311;48.776;9.162;2024-02-21T02:39:48;7.20;95.50
292;DHT22;23311;48.776;9.162;2024-02-21T02:42:18;7.20;95.50
292;DHT22;23311;48.776;9.162;2024-02-21T02:44:46;7.30;95.50
292;DHT22;23311;48.776;9.162;2024-02-21T02:47:14;7.30;95.50
292;DHT22;23311;48.776;9.162;2024-02-21T02:49:42;7.30;95.50
292;DHT22;23311;48.776;9.162;2024-02-21T02:52:11;7.30;95.50
292;DHT22;23311;48.776;9.162;2024-02-21T02:54:40;7.30;95.50
292;DHT22;23311;48.776;9.162;2024-02-21T02:57:08;7.20;95.50
292;DHT22;23311;48.776;9.162;2024-02-21T02:59:38;7.20;95.50
292;DHT22;23311;48.776;9.162;2024-02-21T03:02:07;7.10;95.50
292;DHT22;23311;48.776;9.162;2024-02-21T03:04:35;7.00;95.50
292;DHT22;23311;48.776;9.162;2024-02-21T03:07:03;6.90;95.50
292;DHT22;23311;48.776;9.162;2024-02-21T03:09:32;6.80;95.50
292;DHT22;23311;48.776;9.162;2024-02-21T03:12:00;6.80;95.50
292;DHT22;23311;48.776;9.162;2024-02-21T03:14:30;6.70;95.50
292;DHT22;23311;48.776;9.162;2024-02-21T03:17:00;6.70;95.50
292;DHT22;23311;48.776;9.162;2024-02-21T03:19:29;6.70;95.50
292;DHT22;23311;48.776;9.162;2024-02-21T03:21:57;6.60;95.50
292;DHT22;23311;48.776;9.162;2024-02-21T03:24:26;6.60;95.50
292;DHT22;23311;48.776;9.162;2024-02-21T03:26:54;6.50;95.50
292;DHT22;23311;48.776;9.162;2024-02-21T03:29:22;6.50;95.50
292;DHT22;23311;48.776;9.162;2024-02-21T03:31:50;6.50;95.50
292;DHT22;23311;48.776;9.162;2024-02-21T03:34:20;6.50;95.50
292;DHT22;23311;48.776;9.162;2024-02-21T03:36:48;6.40;95.50
292;DHT22;23311;48.776;9.162;2024-02-21T03:39:16;6.30;95.50
292;DHT22;23311;48.776;9.162;2024-02-21T03:41:44;6.40;95.50
292;DHT22;23311;48.776;9.162;2024-02-21T03:44:12;6.40;95.50
292;DHT22;23311;48.776;9.162;2024-02-21T03:46:41;6.40;95.50
292;DHT22;23311;48.776;9.162;2024-02-21T03:49:09;6.30;95.50
292;DHT22;23311;48.776;9.162;2024-02-21T03:51:38;6.30;95.50
292;DHT22;23311;48.776;9.162;2024-02-21T03:54:07;6.40;95.50
292;DHT22;23311;48.776;9.162;2024-02-21T03:56:37;6.30;95.50
292;DHT22;23311;48.776;9.162;2024-02-21T03:59:06;6.40;95.50
292;DHT22;23311;48.776;9.162;2024-02-21T04:01:35;6.50;95.50
292;DHT22;23311;48.776;9.162;2024-02-21T04:04:03;6.60;95.50
292;DHT22;23311;48.776;9.162;2024-02-21T04:06:32;6.50;95.50
292;DHT22;23311;48.776;9.162;2024-02-21T04:09:01;6.60;95.50
292;DHT22;23311;48.776;9.162;2024-02-21T04:11:30;6.60;95.50
292;DHT22;23311;48.776;9.162;2024-02-21T04:13:58;6.60;95.50
292;DHT22;23311;48.776;9.162;2024-02-21T04:16:26;6.60;95.50
292;DHT22;23311;48.776;9.162;2024-02-21T04:18:55;6.50;95.50
292;DHT22;23311;48.776;9.162;2024-02-21T04:21:23;6.50;95.50
292;DHT22;23311;48.776;9.162;2024-02-21T04:23:51;6.40;95.50
292;DHT22;23311;48.776;9.162;2024-02-21T04:26:21;6.30;95.50
292;DHT22;23311;48.776;9.162;2024-02-21T04:28:49;6.20;95.50
292;DHT22;23311;48.776;9.162;2024-02-21T04:31:17;6.10;95.50
292;DHT22;23311;48.776;9.162;2024-02-21T04:33:46;6.10;95.50
292;DHT22;23311;48.776;9.162;2024-02-21T04:36:14;6.10;95.50
292;DHT22;23311;48.776;9.162;2024-02-21T04:38:42;6.10;95.50
292;DHT22;23311;48.776;9.162;2024-02-21T04:41:10;6.20;95.50
292;DHT22;23311;48.776;9.162;2024-02-21T04:43:40;6.10;95.50
292;DHT22;23311;48.776;9.162;2024-02-21T04:46:08;6.10;95.50
292;DHT22;23311;48.776;9.162;2024-02-21T04:48:37;6.20;95.50
292;DHT22;23311;48.776;9.162;2024-02-21T04:51:05;6.20;95.50
292;DHT22;23311;48.776;9.162;2024-02-21T04:53:33;6.30;95.50
292;DHT22;23311;48.776;9.162;2024-02-21T04:56:01;6.30;95.50
292;DHT22;23311;48.776;9.162;2024-02-21T04:58:30;6.20;95.50
292;DHT22;23311;48.776;9.162;2024-02-21T05:00:59;6.10;95.50
292;DHT22;23311;48.776;9.162;2024-02-21T05:03:28;5.90;95.50
292;DHT22;23311;48.776;9.162;2024-02-21T05:05:56;5.70;95.50
292;DHT22;23311;48.776;9.162;2024-02-21T05:08:24;5.50;95.50
292;DHT22;23311;48.776;9.162;2024-02-21T05:10:52;5.40;95.50
292;DHT22;23311;48.776;9.162;2024-02-21T05:13:21;5.40;95.50
292;DHT22;23311;48.776;9.162;2024-02-21T05:15:49;5.50;95.50
292;DHT22;23311;48.776;9.162;2024-02-21T05:18:19;5.50;95.50
292;DHT22;23311;48.776;9.162;2024-02-21T05:20:47;5.40;95.50
292;DHT22;23311;48.776;9.162;2024-02-21T05:23:16;5.30;95.50
292;DHT22;23311;48.776;9.162;2024-02-21T05:25:44;5.20;95.50
292;DHT22;23311;48.776;9.162;2024-02-21T05:28:12;5.30;95.50
292;DHT22;23311;48.776;9.162;2024-02-21T05:30:41;5.30;95.50
292;DHT22;23311;48.776;9.162;2024-02-21T05:33:10;5.50;95.50
292;DHT22;23311;48.776;9.162;2024-02-21T05:35:39;5.70;95.50
292;DHT22;23311;48.776;9.162;2024-02-21T05:38:07;5.90;95.50
292;DHT22;23311;48.776;9.162;2024-02-21T05:40:38;6.00;95.50
292;DHT22;23311;48.776;9.162;2024-02-21T05:43:07;6.10;95.50
292;DHT22;23311;48.776;9.162;2024-02-21T05:45:36;6.10;95.50
292;DHT22;23311;48.776;9.162;2024-02-21T05:48:04;6.10;95.50
292;DHT22;23311;48.776;9.162;2024-02-21T05:50:33;6.10;95.50
292;DHT22;23311;48.776;9.162;2024-02-21T05:53:03;6.10;95.50
292;DHT22;23311;48.776;9.162;2024-02-21T05:55:31;6.00;95.50
292;DHT22;23311;48.776;9.162;2024-02-21T05:57:59;6.00;95.50
292;DHT22;23311;48.776;9.162;2024-02-21T06:00:28;5.80;95.50
292;DHT22;23311;48.776;9.162;2024-02-21T06:02:57;5.80;95.50
292;DHT22;23311;48.776;9.162;2024-02-21T06:05:25;5.80;95.50
292;DHT22;23311;48.776;9.162;2024-02-21T06:07:54;5.70;95.50
292;DHT22;23311;48.776;9.162;2024-02-21T06:10:27;5.70;95.50
292;DHT22;23311;48.776;9.162;2024-02-21T06:12:55;5.70;95.50
292;DHT22;23311;48.776;9.162;2024-02-21T06:15:23;5.70;95.50
292;DHT22;23311;48.776;9.162;2024-02-21T06:17:51;5.60;95.50
292;DHT22;23311;48.776;9.162;2024-02-21T06:20:19;5.60;95.50
292;DHT22;23311;48.776;9.162;2024-02-21T06:22:48;5.70;95.50
292;DHT22;23311;48.776;9.162;2024-02-21T06:25:16;5.70;95.50
292;DHT22;23311;48.776;9.162;2024-02-21T06:27:45;5.80;95.50
292;DHT22;23311;48.776;9.162;2024-02-21T06:30:14;5.80;95.50
292;DHT22;23311;48.776;9.162;2024-02-21T06:32:42;5.60;95.50
292;DHT22;23311;48.776;9.162;2024-02-21T06:35:10;5.60;95.50
292;DHT22;23311;48.776;9.162;2024-02-21T06:37:38;5.80;95.50
292;DHT22;23311;48.776;9.162;2024-02-21T06:40:07;5.90;95.50
292;DHT22;23311;48.776;9.162;2024-02-21T06:42:36;5.90;95.50
292;DHT22;23311;48.776;9.162;2024-02-21T06:45:06;5.70;95.50
292;DHT22;23311;48.776;9.162;2024-02-21T06:47:34;5.90;95.50
292;DHT22;23311;48.776;9.162;2024-02-21T06:50:03;5.80;95.50
292;DHT22;23311;48.776;9.162;2024-02-21T06:52:31;5.80;95.50
292;DHT22;23311;48.776;9.162;2024-02-21T06:55:00;5.90;95.50
292;DHT22;23311;48.776;9.162;2024-02-21T06:57:28;5.90;95.50
292;DHT22;23311;48.776;9.162;2024-02-21T06:59:57;5.90;95.50
292;DHT22;23311;48.776;9.162;2024-02-21T07:02:27;6.00;95.50
292;DHT22;23311;48.776;9.162;2024-02-21T07:04:56;6.00;95.50
292;DHT22;23311;48.776;9.162;2024-02-21T07:07:24;6.10;95.50
292;DHT22;23311;48.776;9.162;2024-02-21T07:09:53;6.20;95.50
292;DHT22;23311;48.776;9.162;2024-02-21T07:12:21;6.20;95.50
292;DHT22;23311;48.776;9.162;2024-02-21T07:14:50;6.20;95.50
292;DHT22;23311;48.776;9.162;2024-02-21T07:17:18;6.30;95.50
292;DHT22;23311;48.776;9.162;2024-02-21T07:19:47;6.50;95.50
292;DHT22;23311;48.776;9.162;2024-02-21T07:22:16;6.50;95.50
292;DHT22;23311;48.776;9.162;2024-02-21T07:24:44;6.70;95.50
292;DHT22;23311;48.776;9.162;2024-02-21T07:27:15;6.80;95.50
292;DHT22;23311;48.776;9.162;2024-02-21T07:29:44;7.00;95.50
292;DHT22;23311;48.776;9.162;2024-02-21T07:32:14;7.10;95.50
292;DHT22;23311;48.776;9.162;2024-02-21T07:34:42;7.30;95.50
292;DHT22;23311;48.776;9.162;2024-02-21T07:37:13;7.40;95.50
292;DHT22;23311;48.776;9.162;2024-02-21T07:39:41;7.60;95.50
292;DHT22;23311;48.776;9.162;2024-02-21T07:42:09;7.70;95.50
292;DHT22;23311;48.776;9.162;2024-02-21T07:44:37;7.80;95.50
292;DHT22;23311;48.776;9.162;2024-02-21T07:47:05;7.90;95.50
292;DHT22;23311;48.776;9.162;2024-02-21T07:49:41;7.90;95.50
292;DHT22;23311;48.776;9.162;2024-02-21T07:52:10;8.00;95.50
292;DHT22;23311;48.776;9.162;2024-02-21T07:54:40;8.00;95.50
292;DHT22;23311;48.776;9.162;2024-02-21T07:57:08;8.10;95.50
292;DHT22;23311;48.776;9.162;2024-02-21T07:59:36;8.10;95.50
292;DHT22;23311;48.776;9.162;2024-02-21T08:02:05;8.20;95.50
292;DHT22;23311;48.776;9.162;2024-02-21T08:04:33;8.30;95.50
292;DHT22;23311;48.776;9.162;2024-02-21T08:07:02;8.30;95.50
292;DHT22;23311;48.776;9.162;2024-02-21T08:09:31;8.40;95.50
292;DHT22;23311;48.776;9.162;2024-02-21T08:12:00;8.40;95.50
292;DHT22;23311;48.776;9.162;2024-02-21T08:14:29;8.40;95.50
292;DHT22;23311;48.776;9.162;2024-02-21T08:16:57;8.50;95.50
292;DHT22;23311;48.776;9.162;2024-02-21T08:19:26;8.60;95.50
292;DHT22;23311;48.776;9.162;2024-02-21T08:21:54;8.70;95.50
292;DHT22;23311;48.776;9.162;2024-02-21T08:24:22;8.70;95.50
292;DHT22;23311;48.776;9.162;2024-02-21T08:26:51;8.90;95.50
292;DHT22;23311;48.776;9.162;2024-02-21T08:29:20;9.00;95.50
292;DHT22;23311;48.776;9.162;2024-02-21T08:31:48;9.10;95.50
292;DHT22;23311;48.776;9.162;2024-02-21T08:34:17;9.20;95.50
292;DHT22;23311;48.776;9.162;2024-02-21T08:36:45;9.40;95.50
292;DHT22;23311;48.776;9.162;2024-02-21T08:39:13;9.60;95.50
292;DHT22;23311;48.776;9.162;2024-02-21T08:41:43;9.70;95.50
292;DHT22;23311;48.776;9.162;2024-02-21T08:44:24;9.90;95.50
292;DHT22;23311;48.776;9.162;2024-02-21T08:46:54;10.00;95.50
292;DHT22;23311;48.776;9.162;2024-02-21T08:49:23;9.80;95.50
292;DHT22;23311;48.776;9.162;2024-02-21T08:52:00;9.90;95.50
292;DHT22;23311;48.776;9.162;2024-02-21T08:54:28;9.90;95.50
292;DHT22;23311;48.776;9.162;2024-02-21T08:56:56;9.90;95.50
292;DHT22;23311;48.776;9.162;2024-02-21T08:59:26;10.10;95.50
292;DHT22;23311;48.776;9.162;2024-02-21T09:01:54;10.00;95.50
292;DHT22;23311;48.776;9.162;2024-02-21T09:04:31;10.20;95.50
292;DHT22;23311;48.776;9.162;2024-02-21T09:07:00;10.40;95.50
292;DHT22;23311;48.776;9.162;2024-02-21T09:09:28;10.60;95.50
292;DHT22;23311;48.776;9.162;2024-02-21T09:11:57;10.80;95.50
292;DHT22;23311;48.776;9.162;2024-02-21T09:14:36;10.80;95.50
292;DHT22;23311;48.776;9.162;2024-02-21T09:17:05;10.80;95.50
292;DHT22;23311;48.776;9.162;2024-02-21T09:19:35;10.80;95.50
292;DHT22;23311;48.776;9.162;2024-02-21T09:22:03;10.80;95.50
292;DHT22;23311;48.776;9.162;2024-02-21T09:24:31;10.80;95.50
292;DHT22;23311;48.776;9.162;2024-02-21T09:27:00;10.90;95.50
292;DHT22;23311;48.776;9.162;2024-02-21T09:29:28;11.00;95.50
292;DHT22;23311;48.776;9.162;2024-02-21T09:31:57;11.10;95.50
292;DHT22;23311;48.776;9.162;2024-02-21T09:34:25;11.10;95.50
292;DHT22;23311;48.776;9.162;2024-02-21T09:36:54;11.20;95.50
292;DHT22;23311;48.776;9.162;2024-02-21T09:39:22;11.30;95.50
292;DHT22;23311;48.776;9.162;2024-02-21T09:41:54;11.40;95.50
292;DHT22;23311;48.776;9.162;2024-02-21T09:44:24;11.40;95.50
292;DHT22;23311;48.776;9.162;2024-02-21T09:47:03;11.40;95.50
292;DHT22;23311;48.776;9.162;2024-02-21T09:49:33;11.40;95.50
292;DHT22;23311;48.776;9.162;2024-02-21T09:52:05;11.50;95.50
292;DHT22;23311;48.776;9.162;2024-02-21T09:54:34;11.60;95.50
292;DHT22;23311;48.776;9.162;2024-02-21T09:57:02;11.90;95.50
292;DHT22;23311;48.776;9.162;2024-02-21T09:59:32;11.80;95.50
292;DHT22;23311;48.776;9.162;2024-02-21T10:02:02;11.80;95.50
292;DHT22;23311;48.776;9.162;2024-02-21T10:04:32;11.70;95.50
292;DHT22;23311;48.776;9.162;2024-02-21T10:07:00;12.10;95.50
292;DHT22;23311;48.776;9.162;2024-02-21T10:09:29;12.10;95.10
292;DHT22;23311;48.776;9.162;2024-02-21T10:12:07;12.30;95.20
292;DHT22;23311;48.776;9.162;2024-02-21T10:14:36;12.10;94.80
292;DHT22;23311;48.776;9.162;2024-02-21T10:17:06;12.40;94.90
292;DHT22;23311;48.776;9.162;2024-02-21T10:19:38;12.30;94.40
292;DHT22;23311;48.776;9.162;2024-02-21T10:22:07;12.30;94.30
292;DHT22;23311;48.776;9.162;2024-02-21T10:24:37;12.40;94.30
292;DHT22;23311;48.776;9.162;2024-02-21T10:27:09;12.60;94.20
292;DHT22;23311;48.776;9.162;2024-02-21T10:29:39;12.90;93.60
292;DHT22;23311;48.776;9.162;2024-02-21T10:32:11;13.20;92.50
292;DHT22;23311;48.776;9.162;2024-02-21T10:34:41;13.00;91.70
292;DHT22;23311;48.776;9.162;2024-02-21T10:37:11;13.20;91.60
292;DHT22;23311;48.776;9.162;2024-02-21T10:39:40;13.20;91.20
292;DHT22;23311;48.776;9.162;2024-02-21T10:42:11;12.80;91.20
292;DHT22;23311;48.776;9.162;2024-02-21T10:44:40;13.00;91.30
292;DHT22;23311;48.776;9.162;2024-02-21T10:47:11;13.20;90.60
292;DHT22;23311;48.776;9.162;2024-02-21T10:49:42;13.20;89.60
292;DHT22;23311;48.776;9.162;2024-02-21T10:52:19;13.40;89.70
292;DHT22;23311;48.776;9.162;2024-02-21T10:54:55;13.70;89.30
292;DHT22;23311;48.776;9.162;2024-02-21T10:57:25;13.80;88.90
292;DHT22;23311;48.776;9.162;2024-02-21T10:59:55;13.80;89.00
292;DHT22;23311;48.776;9.162;2024-02-21T11:02:26;13.90;88.90
292;DHT22;23311;48.776;9.162;2024-02-21T11:04:58;13.50;89.10
292;DHT22;23311;48.776;9.162;2024-02-21T11:07:27;13.40;87.90
292;DHT22;23311;48.776;9.162;2024-02-21T11:09:56;13.00;89.80
292;DHT22;23311;48.776;9.162;2024-02-21T11:12:25;13.40;90.00
292;DHT22;23311;48.776;9.162;2024-02-21T11:15:04;13.90;89.00
292;DHT22;23311;48.776;9.162;2024-02-21T11:17:34;14.20;87.70
292;DHT22;23311;48.776;9.162;2024-02-21T11:20:16;14.40;87.10
292;DHT22;23311;48.776;9.162;2024-02-21T11:22:44;14.40;86.00
292;DHT22;23311;48.776;9.162;2024-02-21T11:25:21;14.60;85.40
292;DHT22;23311;48.776;9.162;2024-02-21T11:27:50;14.20;86.10
292;DHT22;23311;48.776;9.162;2024-02-21T11:30:26;14.40;86.10
292;DHT22;23311;48.776;9.162;2024-02-21T11:33:01;14.60;85.80
292;DHT22;23311;48.776;9.162;2024-02-21T11:35:34;14.50;85.40
292;DHT22;23311;48.776;9.162;2024-02-21T11:38:10;14.40;85.60
292;DHT22;23311;48.776;9.162;2024-02-21T11:40:44;14.70;85.30
292;DHT22;23311;48.776;9.162;2024-02-21T11:43:13;14.80;84.40
292;DHT22;23311;48.776;9.162;2024-02-21T11:45:43;14.20;85.10
292;DHT22;23311;48.776;9.162;2024-02-21T11:48:12;13.70;86.90
292;DHT22;23311;48.776;9.162;2024-02-21T11:50:40;13.60;87.00
292;DHT22;23311;48.776;9.162;2024-02-21T11:53:09;14.30;85.40
292;DHT22;23311;48.776;9.162;2024-02-21T11:55:37;14.70;83.90
292;DHT22;23311;48.776;9.162;2024-02-21T11:58:05;14.60;82.80
292;DHT22;23311;48.776;9.162;2024-02-21T12:00:33;14.40;83.10
292;DHT22;23311;48.776;9.162;2024-02-21T12:03:03;14.00;83.50
292;DHT22;23311;48.776;9.162;2024-02-21T12:05:33;13.60;82.40
292;DHT22;23311;48.776;9.162;2024-02-21T12:08:04;13.60;81.60
292;DHT22;23311;48.776;9.162;2024-02-21T12:10:32;13.90;80.90
292;DHT22;23311;48.776;9.162;2024-02-21T12:13:07;14.20;80.80
292;DHT22;23311;48.776;9.162;2024-02-21T12:15:36;14.60;80.30
292;DHT22;23311;48.776;9.162;2024-02-21T12:18:04;14.60;80.00
292;DHT22;23311;48.776;9.162;2024-02-21T12:20:34;14.80;80.50
292;DHT22;23311;48.776;9.162;2024-02-21T12:23:03;15.10;79.30
292;DHT22;23311;48.776;9.162;2024-02-21T12:25:32;14.50;80.00
292;DHT22;23311;48.776;9.162;2024-02-21T12:28:01;14.70;80.20
292;DHT22;23311;48.776;9.162;2024-02-21T12:30:31;15.00;79.70
292;DHT22;23311;48.776;9.162;2024-02-21T12:33:00;15.60;78.30
292;DHT22;23311;48.776;9.162;2024-02-21T12:35:29;15.70;77.20
292;DHT22;23311;48.776;9.162;2024-02-21T12:38:00;15.50;77.30
292;DHT22;23311;48.776;9.162;2024-02-21T12:40:29;15.50;77.00
292;DHT22;23311;48.776;9.162;2024-02-21T12:43:00;15.20;78.00
292;DHT22;23311;48.776;9.162;2024-02-21T12:45:29;14.80;78.90
292;DHT22;23311;48.776;9.162;2024-02-21T12:47:58;14.70;79.10
292;DHT22;23311;48.776;9.162;2024-02-21T12:50:26;15.00;78.70
292;DHT22;23311;48.776;9.162;2024-02-21T12:52:54;15.00;78.20
292;DHT22;23311;48.776;9.162;2024-02-21T12:55:24;15.10;78.20
292;DHT22;23311;48.776;9.162;2024-02-21T12:57:52;15.20;78.30
292;DHT22;23311;48.776;9.162;2024-02-21T13:00:20;15.40;77.70
292;DHT22;23311;48.776;9.162;2024-02-21T13:02:49;15.40;77.40
292;DHT22;23311;48.776;9.162;2024-02-21T13:05:18;15.30;77.70
292;DHT22;23311;48.776;9.162;2024-02-21T13:07:46;15.50;77.60
292;DHT22;23311;48.776;9.162;2024-02-21T13:10:15;15.60;77.20
292;DHT22;23311;48.776;9.162;2024-02-21T13:12:46;15.60;76.90
292;DHT22;23311;48.776;9.162;2024-02-21T13:15:15;15.40;76.80
292;DHT22;23311;48.776;9.162;2024-02-21T13:17:44;15.40;77.30
292;DHT22;23311;48.776;9.162;2024-02-21T13:20:14;15.50;76.20
292;DHT22;23311;48.776;9.162;2024-02-21T13:22:45;15.60;76.00
292;DHT22;23311;48.776;9.162;2024-02-21T13:25:14;15.60;76.40
292;DHT22;23311;48.776;9.162;2024-02-21T13:27:47;15.70;76.60
292;DHT22;23311;48.776;9.162;2024-02-21T13:30:15;15.70;76.70
292;DHT22;23311;48.776;9.162;2024-02-21T13:32:44;15.70;76.00
292;DHT22;23311;48.776;9.162;2024-02-21T13:35:14;15.60;76.40
292;DHT22;23311;48.776;9.162;2024-02-21T13:37:43;15.40;76.20
292;DHT22;23311;48.776;9.162;2024-02-21T13:40:12;15.50;76.10
292;DHT22;23311;48.776;9.162;2024-02-21T13:42:41;15.50;76.30
292;DHT22;23311;48.776;9.162;2024-02-21T13:45:11;15.50;76.60
292;DHT22;23311;48.776;9.162;2024-02-21T13:47:39;15.60;76.70
292;DHT22;23311;48.776;9.162;2024-02-21T13:50:08;15.40;76.30
292;DHT22;23311;48.776;9.162;2024-02-21T13:52:38;15.10;76.10
292;DHT22;23311;48.776;9.162;2024-02-21T13:55:07;15.10;76.40
292;DHT22;23311;48.776;9.162;2024-02-21T13:57:36;15.20;75.60
292;DHT22;23311;48.776;9.162;2024-02-21T14:00:08;15.20;75.60
292;DHT22;23311;48.776;9.162;2024-02-21T14:02:39;15.10;75.90
292;DHT22;23311;48.776;9.162;2024-02-21T14:05:08;15.10;75.90
292;DHT22;23311;48.776;9.162;2024-02-21T14:07:37;15.10;76.10
292;DHT22;23311;48.776;9.162;2024-02-21T14:10:07;15.10;76.10
292;DHT22;23311;48.776;9.162;2024-02-21T14:12:36;15.20;76.10
292;DHT22;23311;48.776;9.162;2024-02-21T14:15:07;15.10;75.80
292;DHT22;23311;48.776;9.162;2024-02-21T14:17:36;15.00;75.90
292;DHT22;23311;48.776;9.162;2024-02-21T14:20:10;15.00;75.50
292;DHT22;23311;48.776;9.162;2024-02-21T14:22:43;14.90;75.60
292;DHT22;23311;48.776;9.162;2024-02-21T14:25:12;14.90;75.60
292;DHT22;23311;48.776;9.162;2024-02-21T14:27:42;15.00;75.40
292;DHT22;23311;48.776;9.162;2024-02-21T14:30:11;15.00;75.20
292;DHT22;23311;48.776;9.162;2024-02-21T14:32:43;14.90;75.30
292;DHT22;23311;48.776;9.162;2024-02-21T14:35:13;14.90;75.10
292;DHT22;23311;48.776;9.162;2024-02-21T14:37:43;14.80;75.30
292;DHT22;23311;48.776;9.162;2024-02-21T14:40:15;14.90;75.30
292;DHT22;23311;48.776;9.162;2024-02-21T14:42:43;14.50;75.40
292;DHT22;23311;48.776;9.162;2024-02-21T14:45:12;14.70;74.60
292;DHT22;23311;48.776;9.162;2024-02-21T14:47:41;14.70;74.40
292;DHT22;23311;48.776;9.162;2024-02-21T14:50:10;14.70;74.60
292;DHT22;23311;48.776;9.162;2024-02-21T14:52:40;14.70;74.50
292;DHT22;23311;48.776;9.162;2024-02-21T14:55:09;14.80;74.50
292;DHT22;23311;48.776;9.162;2024-02-21T14:57:39;14.80;74.90
292;DHT22;23311;48.776;9.162;2024-02-21T15:00:10;14.70;74.80
292;DHT22;23311;48.776;9.162;2024-02-21T15:02:39;14.60;73.70
292;DHT22;23311;48.776;9.162;2024-02-21T15:05:08;14.30;74.00
292;DHT22;23311;48.776;9.162;2024-02-21T15:07:39;14.30;73.70
292;DHT22;23311;48.776;9.162;2024-02-21T15:10:08;14.30;73.60
292;DHT22;23311;48.776;9.162;2024-02-21T15:12:36;14.30;73.30
292;DHT22;23311;48.776;9.162;2024-02-21T15:15:06;14.20;72.70
292;DHT22;23311;48.776;9.162;2024-02-21T15:17:35;14.20;72.80
292;DHT22;23311;48.776;9.162;2024-02-21T15:20:05;14.10;72.40
292;DHT22;23311;48.776;9.162;2024-02-21T15:22:34;14.00;72.80
292;DHT22;23311;48.776;9.162;2024-02-21T15:25:05;13.90;73.30
292;DHT22;23311;48.776;9.162;2024-02-21T15:27:34;13.90;74.20
292;DHT22;23311;48.776;9.162;2024-02-21T15:30:07;14.00;74.60
292;DHT22;23311;48.776;9.162;2024-02-21T15:32:36;14.00;75.60
292;DHT22;23311;48.776;9.162;2024-02-21T15:35:05;14.00;75.90
292;DHT22;23311;48.776;9.162;2024-02-21T15:37:34;14.00;76.40
292;DHT22;23311;48.776;9.162;2024-02-21T15:40:05;14.00;77.10
292;DHT22;23311;48.776;9.162;2024-02-21T15:42:35;13.90;77.70
292;DHT22;23311;48.776;9.162;2024-02-21T15:45:04;13.90;79.00
292;DHT22;23311;48.776;9.162;2024-02-21T15:47:34;13.80;80.00
292;DHT22;23311;48.776;9.162;2024-02-21T15:50:03;13.70;81.00
292;DHT22;23311;48.776;9.162;2024-02-21T15:52:31;13.60;81.80
292;DHT22;23311;48.776;9.162;2024-02-21T15:54:59;13.50;82.60
292;DHT22;23311;48.776;9.162;2024-02-21T15:57:29;13.50;83.10
292;DHT22;23311;48.776;9.162;2024-02-21T15:59:59;13.50;83.50
292;DHT22;23311;48.776;9.162;2024-02-21T16:02:27;13.50;84.10
292;DHT22;23311;48.776;9.162;2024-02-21T16:04:56;13.40;84.50
292;DHT22;23311;48.776;9.162;2024-02-21T16:07:25;13.30;85.30
292;DHT22;23311;48.776;9.162;2024-02-21T16:09:54;13.20;85.80
292;DHT22;23311;48.776;9.162;2024-02-21T16:12:22;13.20;86.30
292;DHT22;23311;48.776;9.162;2024-02-21T16:14:52;13.10;86.60
292;DHT22;23311;48.776;9.162;2024-02-21T16:17:20;13.10;87.10
292;DHT22;23311;48.776;9.162;2024-02-21T16:19:49;13.00;87.50
292;DHT22;23311;48.776;9.162;2024-02-21T16:22:18;13.00;87.70